sensor_id;sensor_type;location;lat;lon;timestamp;P1;durP1;ratioP1;P2;durP2;ratioP2
46535;SDS011;32264;51.412;5.546;2023-03-11T00:00:32;1.23;;;0.73;;
46535;SDS011;32264;51.412;5.546;2023-03-11T00:03:00;0.60;;;0.60;;
46535;SDS011;32264;51.412;5.546;2023-03-11T00:05:27;2.20;;;0.85;;
46535;SDS011;32264;51.412;5.546;2023-03-11T00:07:58;0.75;;;0.70;;
46535;SDS011;32264;51.412;5.546;2023-03-11T00:10:26;1.58;;;0.80;;
46535;SDS011;32264;51.412;5.546;2023-03-11T00:12:56;0.70;;;0.70;;
46535;SDS011;32264;51.412;5.546;2023-03-11T00:15:23;1.85;;;0.80;;
46535;SDS011;32264;51.412;5.546;2023-03-11T00:17:50;0.75;;;0.73;;
46535;SDS011;32264;51.412;5.546;2023-03-11T00:20:20;1.25;;;0.75;;
46535;SDS011;32264;51.412;5.546;2023-03-11T00:22:46;1.25;;;0.80;;
46535;SDS011;32264;51.412;5.546;2023-03-11T00:25:12;1.35;;;0.82;;
46535;SDS011;32264;51.412;5.546;2023-03-11T00:27:38;0.65;;;0.65;;
46535;SDS011;32264;51.412;5.546;2023-03-11T00:30:04;0.45;;;0.45;;
46535;SDS011;32264;51.412;5.546;2023-03-11T00:32:30;0.52;;;0.52;;
46535;SDS011;32264;51.412;5.546;2023-03-11T00:34:56;0.60;;;0.60;;
46535;SDS011;32264;51.412;5.546;2023-03-11T00:37:22;0.90;;;0.70;;
46535;SDS011;32264;51.412;5.546;2023-03-11T00:39:48;0.60;;;0.60;;
46535;SDS011;32264;51.412;5.546;2023-03-11T00:42:13;0.85;;;0.70;;
46535;SDS011;32264;51.412;5.546;2023-03-11T00:44:39;0.80;;;0.80;;
46535;SDS011;32264;51.412;5.546;2023-03-11T00:47:05;1.75;;;0.93;;
46535;SDS011;32264;51.412;5.546;2023-03-11T00:49:31;0.70;;;0.70;;
46535;SDS011;32264;51.412;5.546;2023-03-11T00:51:57;0.65;;;0.63;;
46535;SDS011;32264;51.412;5.546;2023-03-11T00:54:22;0.60;;;0.60;;
46535;SDS011;32264;51.412;5.546;2023-03-11T00:56:48;0.63;;;0.60;;
46535;SDS011;32264;51.412;5.546;2023-03-11T00:59:13;0.90;;;0.60;;
46535;SDS011;32264;51.412;5.546;2023-03-11T01:01:39;0.68;;;0.63;;
46535;SDS011;32264;51.412;5.546;2023-03-11T01:04:05;0.95;;;0.77;;
46535;SDS011;32264;51.412;5.546;2023-03-11T01:06:30;0.95;;;0.60;;
46535;SDS011;32264;51.412;5.546;2023-03-11T01:08:56;0.52;;;0.52;;
46535;SDS011;32264;51.412;5.546;2023-03-11T01:11:21;0.90;;;0.90;;
46535;SDS011;32264;51.412;5.546;2023-03-11T01:13:47;1.00;;;0.63;;
46535;SDS011;32264;51.412;5.546;2023-03-11T01:16:13;0.70;;;0.70;;
46535;SDS011;32264;51.412;5.546;2023-03-11T01:18:38;0.70;;;0.70;;
46535;SDS011;32264;51.412;5.546;2023-03-11T01:21:04;0.90;;;0.70;;
46535;SDS011;32264;51.412;5.546;2023-03-11T01:23:29;2.42;;;0.82;;
46535;SDS011;32264;51.412;5.546;2023-03-11T01:25:56;1.15;;;0.68;;
46535;SDS011;32264;51.412;5.546;2023-03-11T01:28:22;2.90;;;0.73;;
46535;SDS011;32264;51.412;5.546;2023-03-11T01:30:48;0.60;;;0.60;;
46535;SDS011;32264;51.412;5.546;2023-03-11T01:33:15;0.90;;;0.90;;
46535;SDS011;32264;51.412;5.546;2023-03-11T01:35:42;0.85;;;0.80;;
46535;SDS011;32264;51.412;5.546;2023-03-11T01:38:08;0.70;;;0.70;;
46535;SDS011;32264;51.412;5.546;2023-03-11T01:51:40;0.52;;;0.50;;
46535;SDS011;32264;51.412;5.546;2023-03-11T01:54:09;1.02;;;0.80;;
46535;SDS011;32264;51.412;5.546;2023-03-11T01:56:38;0.68;;;0.57;;
46535;SDS011;32264;51.412;5.546;2023-03-11T01:59:06;0.90;;;0.90;;
46535;SDS011;32264;51.412;5.546;2023-03-11T02:01:33;0.75;;;0.75;;
46535;SDS011;32264;51.412;5.546;2023-03-11T02:04:01;1.20;;;0.80;;
46535;SDS011;32264;51.412;5.546;2023-03-11T02:06:27;0.85;;;0.70;;
46535;SDS011;32264;51.412;5.546;2023-03-11T02:12:14;1.20;;;0.80;;
46535;SDS011;32264;51.412;5.546;2023-03-11T02:14:44;1.08;;;0.60;;
46535;SDS011;32264;51.412;5.546;2023-03-11T02:17:13;1.65;;;0.70;;
46535;SDS011;32264;51.412;5.546;2023-03-11T02:22:14;0.60;;;0.60;;
46535;SDS011;32264;51.412;5.546;2023-03-11T02:27:36;1.55;;;0.80;;
46535;SDS011;32264;51.412;5.546;2023-03-11T02:30:05;1.08;;;0.68;;
46535;SDS011;32264;51.412;5.546;2023-03-11T02:32:32;0.60;;;0.60;;
46535;SDS011;32264;51.412;5.546;2023-03-11T02:34:58;0.77;;;0.77;;
46535;SDS011;32264;51.412;5.546;2023-03-11T02:37:24;0.60;;;0.60;;
46535;SDS011;32264;51.412;5.546;2023-03-11T02:39:50;0.82;;;0.82;;
46535;SDS011;32264;51.412;5.546;2023-03-11T02:42:21;1.25;;;0.80;;
46535;SDS011;32264;51.412;5.546;2023-03-11T02:44:53;0.52;;;0.52;;
46535;SDS011;32264;51.412;5.546;2023-03-11T02:47:32;4.25;;;0.70;;
46535;SDS011;32264;51.412;5.546;2023-03-11T02:50:00;2.05;;;0.80;;
46535;SDS011;32264;51.412;5.546;2023-03-11T02:52:30;0.60;;;0.60;;
46535;SDS011;32264;51.412;5.546;2023-03-11T02:54:58;0.60;;;0.60;;
46535;SDS011;32264;51.412;5.546;2023-03-11T02:57:24;0.65;;;0.65;;
46535;SDS011;32264;51.412;5.546;2023-03-11T02:59:50;0.70;;;0.70;;
46535;SDS011;32264;51.412;5.546;2023-03-11T03:02:18;0.73;;;0.73;;
46535;SDS011;32264;51.412;5.546;2023-03-11T03:04:43;0.80;;;0.57;;
46535;SDS011;32264;51.412;5.546;2023-03-11T03:07:09;1.42;;;0.90;;
46535;SDS011;32264;51.412;5.546;2023-03-11T03:09:35;2.30;;;0.70;;
46535;SDS011;32264;51.412;5.546;2023-03-11T03:12:01;0.82;;;0.80;;
46535;SDS011;32264;51.412;5.546;2023-03-11T03:14:28;0.68;;;0.68;;
46535;SDS011;32264;51.412;5.546;2023-03-11T03:16:54;0.80;;;0.80;;
46535;SDS011;32264;51.412;5.546;2023-03-11T03:19:20;1.20;;;0.75;;
46535;SDS011;32264;51.412;5.546;2023-03-11T03:21:45;0.70;;;0.70;;
46535;SDS011;32264;51.412;5.546;2023-03-11T03:24:11;0.60;;;0.60;;
46535;SDS011;32264;51.412;5.546;2023-03-11T03:26:37;1.25;;;0.80;;
46535;SDS011;32264;51.412;5.546;2023-03-11T03:29:03;0.70;;;0.70;;
46535;SDS011;32264;51.412;5.546;2023-03-11T03:31:29;1.77;;;1.10;;
46535;SDS011;32264;51.412;5.546;2023-03-11T03:33:56;0.93;;;0.88;;
46535;SDS011;32264;51.412;5.546;2023-03-11T03:36:21;0.60;;;0.60;;
46535;SDS011;32264;51.412;5.546;2023-03-11T03:38:47;0.82;;;0.80;;
46535;SDS011;32264;51.412;5.546;2023-03-11T03:41:16;0.77;;;0.77;;
46535;SDS011;32264;51.412;5.546;2023-03-11T03:43:42;0.70;;;0.70;;
46535;SDS011;32264;51.412;5.546;2023-03-11T03:46:08;0.80;;;0.80;;
46535;SDS011;32264;51.412;5.546;2023-03-11T03:48:33;0.77;;;0.77;;
46535;SDS011;32264;51.412;5.546;2023-03-11T03:51:03;0.73;;;0.70;;
46535;SDS011;32264;51.412;5.546;2023-03-11T03:53:36;1.00;;;0.80;;
46535;SDS011;32264;51.412;5.546;2023-03-11T03:56:05;0.93;;;0.60;;
46535;SDS011;32264;51.412;5.546;2023-03-11T03:58:35;1.23;;;0.88;;
46535;SDS011;32264;51.412;5.546;2023-03-11T04:01:01;0.88;;;0.82;;
46535;SDS011;32264;51.412;5.546;2023-03-11T04:03:28;0.75;;;0.75;;
46535;SDS011;32264;51.412;5.546;2023-03-11T04:06:04;0.93;;;0.70;;
46535;SDS011;32264;51.412;5.546;2023-03-11T04:08:30;0.80;;;0.80;;
46535;SDS011;32264;51.412;5.546;2023-03-11T04:10:56;1.58;;;0.70;;
46535;SDS011;32264;51.412;5.546;2023-03-11T04:13:22;0.85;;;0.85;;
46535;SDS011;32264;51.412;5.546;2023-03-11T04:15:47;0.82;;;0.82;;
46535;SDS011;32264;51.412;5.546;2023-03-11T04:18:13;0.95;;;0.93;;
46535;SDS011;32264;51.412;5.546;2023-03-11T04:20:39;1.17;;;1.00;;
46535;SDS011;32264;51.412;5.546;2023-03-11T04:23:04;1.15;;;1.02;;
46535;SDS011;32264;51.412;5.546;2023-03-11T04:25:30;0.85;;;0.80;;
46535;SDS011;32264;51.412;5.546;2023-03-11T04:27:55;0.90;;;0.90;;
46535;SDS011;32264;51.412;5.546;2023-03-11T04:30:21;1.33;;;0.60;;
46535;SDS011;32264;51.412;5.546;2023-03-11T04:32:47;0.70;;;0.70;;
46535;SDS011;32264;51.412;5.546;2023-03-11T04:35:12;0.85;;;0.80;;
46535;SDS011;32264;51.412;5.546;2023-03-11T04:37:38;1.33;;;0.80;;
46535;SDS011;32264;51.412;5.546;2023-03-11T04:40:04;1.05;;;0.75;;
46535;SDS011;32264;51.412;5.546;2023-03-11T04:42:30;0.70;;;0.70;;
46535;SDS011;32264;51.412;5.546;2023-03-11T04:44:56;1.13;;;0.82;;
46535;SDS011;32264;51.412;5.546;2023-03-11T04:47:22;0.70;;;0.70;;
46535;SDS011;32264;51.412;5.546;2023-03-11T04:49:47;0.82;;;0.82;;
46535;SDS011;32264;51.412;5.546;2023-03-11T04:52:13;0.80;;;0.80;;
46535;SDS011;32264;51.412;5.546;2023-03-11T04:54:39;0.93;;;0.88;;
46535;SDS011;32264;51.412;5.546;2023-03-11T04:57:04;0.80;;;0.80;;
46535;SDS011;32264;51.412;5.546;2023-03-11T04:59:30;0.80;;;0.80;;
46535;SDS011;32264;51.412;5.546;2023-03-11T05:01:55;1.25;;;0.80;;
46535;SDS011;32264;51.412;5.546;2023-03-11T05:04:21;1.80;;;1.10;;
46535;SDS011;32264;51.412;5.546;2023-03-11T05:06:47;0.73;;;0.73;;
46535;SDS011;32264;51.412;5.546;2023-03-11T05:09:15;1.75;;;0.90;;
46535;SDS011;32264;51.412;5.546;2023-03-11T05:11:41;0.77;;;0.77;;
46535;SDS011;32264;51.412;5.546;2023-03-11T05:14:06;0.70;;;0.70;;
46535;SDS011;32264;51.412;5.546;2023-03-11T05:16:32;0.90;;;0.90;;
46535;SDS011;32264;51.412;5.546;2023-03-11T05:18:58;0.90;;;0.90;;
46535;SDS011;32264;51.412;5.546;2023-03-11T05:21:23;0.80;;;0.80;;
46535;SDS011;32264;51.412;5.546;2023-03-11T05:23:49;0.80;;;0.80;;
46535;SDS011;32264;51.412;5.546;2023-03-11T05:26:14;0.95;;;0.80;;
46535;SDS011;32264;51.412;5.546;2023-03-11T05:28:42;1.17;;;0.90;;
46535;SDS011;32264;51.412;5.546;2023-03-11T05:31:10;0.70;;;0.70;;
46535;SDS011;32264;51.412;5.546;2023-03-11T05:33:36;1.23;;;0.85;;
46535;SDS011;32264;51.412;5.546;2023-03-11T05:36:02;0.70;;;0.70;;
46535;SDS011;32264;51.412;5.546;2023-03-11T05:38:33;0.73;;;0.73;;
46535;SDS011;32264;51.412;5.546;2023-03-11T05:40:59;0.80;;;0.80;;
46535;SDS011;32264;51.412;5.546;2023-03-11T05:43:25;0.93;;;0.93;;
46535;SDS011;32264;51.412;5.546;2023-03-11T05:45:51;0.80;;;0.80;;
46535;SDS011;32264;51.412;5.546;2023-03-11T05:48:16;2.35;;;0.93;;
46535;SDS011;32264;51.412;5.546;2023-03-11T05:50:42;0.80;;;0.80;;
46535;SDS011;32264;51.412;5.546;2023-03-11T05:53:07;0.73;;;0.70;;
46535;SDS011;32264;51.412;5.546;2023-03-11T05:55:33;1.25;;;0.88;;
46535;SDS011;32264;51.412;5.546;2023-03-11T05:57:58;1.35;;;0.80;;
46535;SDS011;32264;51.412;5.546;2023-03-11T06:00:24;1.17;;;1.10;;
46535;SDS011;32264;51.412;5.546;2023-03-11T06:02:53;0.80;;;0.80;;
46535;SDS011;32264;51.412;5.546;2023-03-11T06:05:18;1.80;;;1.23;;
46535;SDS011;32264;51.412;5.546;2023-03-11T06:07:44;3.20;;;0.88;;
46535;SDS011;32264;51.412;5.546;2023-03-11T06:10:10;1.02;;;0.93;;
46535;SDS011;32264;51.412;5.546;2023-03-11T06:12:36;1.33;;;0.82;;
46535;SDS011;32264;51.412;5.546;2023-03-11T06:15:03;1.10;;;1.00;;
46535;SDS011;32264;51.412;5.546;2023-03-11T06:17:31;0.80;;;0.80;;
46535;SDS011;32264;51.412;5.546;2023-03-11T06:19:57;1.45;;;1.05;;
46535;SDS011;32264;51.412;5.546;2023-03-11T06:22:23;1.27;;;0.90;;
46535;SDS011;32264;51.412;5.546;2023-03-11T06:24:48;1.08;;;0.98;;
46535;SDS011;32264;51.412;5.546;2023-03-11T06:27:14;0.85;;;0.80;;
46535;SDS011;32264;51.412;5.546;2023-03-11T06:29:40;0.82;;;0.82;;
46535;SDS011;32264;51.412;5.546;2023-03-11T06:32:05;0.85;;;0.70;;
46535;SDS011;32264;51.412;5.546;2023-03-11T06:34:31;0.70;;;0.70;;
46535;SDS011;32264;51.412;5.546;2023-03-11T06:36:57;0.90;;;0.90;;
46535;SDS011;32264;51.412;5.546;2023-03-11T06:39:24;0.80;;;0.80;;
46535;SDS011;32264;51.412;5.546;2023-03-11T06:41:49;0.93;;;0.90;;
46535;SDS011;32264;51.412;5.546;2023-03-11T06:44:15;0.70;;;0.70;;
46535;SDS011;32264;51.412;5.546;2023-03-11T06:46:41;0.98;;;0.90;;
46535;SDS011;32264;51.412;5.546;2023-03-11T06:49:07;0.70;;;0.70;;
46535;SDS011;32264;51.412;5.546;2023-03-11T06:51:32;1.63;;;1.23;;
46535;SDS011;32264;51.412;5.546;2023-03-11T06:53:58;0.80;;;0.80;;
46535;SDS011;32264;51.412;5.546;2023-03-11T06:56:23;1.15;;;1.00;;
46535;SDS011;32264;51.412;5.546;2023-03-11T06:58:49;0.88;;;0.88;;
46535;SDS011;32264;51.412;5.546;2023-03-11T07:01:21;0.95;;;0.90;;
46535;SDS011;32264;51.412;5.546;2023-03-11T07:03:49;0.93;;;0.90;;
46535;SDS011;32264;51.412;5.546;2023-03-11T07:06:16;0.90;;;0.90;;
46535;SDS011;32264;51.412;5.546;2023-03-11T07:08:45;0.77;;;0.77;;
46535;SDS011;32264;51.412;5.546;2023-03-11T07:11:13;1.58;;;0.90;;
46535;SDS011;32264;51.412;5.546;2023-03-11T07:13:39;1.30;;;0.98;;
46535;SDS011;32264;51.412;5.546;2023-03-11T07:16:06;1.38;;;0.80;;
46535;SDS011;32264;51.412;5.546;2023-03-11T07:18:40;0.95;;;0.70;;
46535;SDS011;32264;51.412;5.546;2023-03-11T07:21:10;1.42;;;0.80;;
46535;SDS011;32264;51.412;5.546;2023-03-11T07:23:37;0.90;;;0.90;;
46535;SDS011;32264;51.412;5.546;2023-03-11T07:26:03;2.00;;;0.93;;
46535;SDS011;32264;51.412;5.546;2023-03-11T07:28:29;1.13;;;0.98;;
46535;SDS011;32264;51.412;5.546;2023-03-11T07:30:55;1.40;;;1.00;;
46535;SDS011;32264;51.412;5.546;2023-03-11T07:33:21;0.80;;;0.80;;
46535;SDS011;32264;51.412;5.546;2023-03-11T07:35:50;1.40;;;0.98;;
46535;SDS011;32264;51.412;5.546;2023-03-11T07:38:16;1.02;;;0.80;;
46535;SDS011;32264;51.412;5.546;2023-03-11T07:40:43;0.70;;;0.70;;
46535;SDS011;32264;51.412;5.546;2023-03-11T07:43:09;0.77;;;0.75;;
46535;SDS011;32264;51.412;5.546;2023-03-11T07:45:35;3.20;;;0.80;;
46535;SDS011;32264;51.412;5.546;2023-03-11T07:48:01;0.82;;;0.82;;
46535;SDS011;32264;51.412;5.546;2023-03-11T07:50:27;1.48;;;0.90;;
46535;SDS011;32264;51.412;5.546;2023-03-11T07:52:53;0.98;;;0.90;;
46535;SDS011;32264;51.412;5.546;2023-03-11T07:55:18;1.15;;;1.05;;
46535;SDS011;32264;51.412;5.546;2023-03-11T07:57:47;1.40;;;0.80;;
46535;SDS011;32264;51.412;5.546;2023-03-11T08:00:13;0.77;;;0.77;;
46535;SDS011;32264;51.412;5.546;2023-03-11T08:02:40;1.23;;;0.77;;
46535;SDS011;32264;51.412;5.546;2023-03-11T08:05:05;0.80;;;0.80;;
46535;SDS011;32264;51.412;5.546;2023-03-11T08:07:31;0.73;;;0.70;;
46535;SDS011;32264;51.412;5.546;2023-03-11T08:09:57;0.80;;;0.80;;
46535;SDS011;32264;51.412;5.546;2023-03-11T08:12:23;0.80;;;0.80;;
46535;SDS011;32264;51.412;5.546;2023-03-11T08:14:49;0.70;;;0.70;;
46535;SDS011;32264;51.412;5.546;2023-03-11T08:17:14;0.75;;;0.75;;
46535;SDS011;32264;51.412;5.546;2023-03-11T08:19:40;1.50;;;0.80;;
46535;SDS011;32264;51.412;5.546;2023-03-11T08:22:06;0.60;;;0.60;;
46535;SDS011;32264;51.412;5.546;2023-03-11T08:24:32;0.68;;;0.68;;
46535;SDS011;32264;51.412;5.546;2023-03-11T08:26:57;0.90;;;0.90;;
46535;SDS011;32264;51.412;5.546;2023-03-11T08:29:23;1.65;;;0.88;;
46535;SDS011;32264;51.412;5.546;2023-03-11T08:31:49;0.80;;;0.80;;
46535;SDS011;32264;51.412;5.546;2023-03-11T08:34:15;0.88;;;0.77;;
46535;SDS011;32264;51.412;5.546;2023-03-11T08:36:40;2.17;;;0.93;;
46535;SDS011;32264;51.412;5.546;2023-03-11T08:39:14;0.90;;;0.77;;
46535;SDS011;32264;51.412;5.546;2023-03-11T08:42:05;0.80;;;0.80;;
46535;SDS011;32264;51.412;5.546;2023-03-11T08:44:34;1.63;;;1.00;;
46535;SDS011;32264;51.412;5.546;2023-03-11T08:46:59;0.60;;;0.50;;
46535;SDS011;32264;51.412;5.546;2023-03-11T08:50:02;0.73;;;0.70;;
46535;SDS011;32264;51.412;5.546;2023-03-11T08:52:33;0.80;;;0.80;;
46535;SDS011;32264;51.412;5.546;2023-03-11T08:54:59;0.95;;;0.75;;
46535;SDS011;32264;51.412;5.546;2023-03-11T08:57:25;0.73;;;0.73;;
46535;SDS011;32264;51.412;5.546;2023-03-11T08:59:52;0.88;;;0.82;;
46535;SDS011;32264;51.412;5.546;2023-03-11T09:02:18;0.52;;;0.50;;
46535;SDS011;32264;51.412;5.546;2023-03-11T09:04:44;0.60;;;0.60;;
46535;SDS011;32264;51.412;5.546;2023-03-11T09:07:11;0.60;;;0.60;;
46535;SDS011;32264;51.412;5.546;2023-03-11T09:09:38;0.95;;;0.80;;
46535;SDS011;32264;51.412;5.546;2023-03-11T09:12:04;0.60;;;0.60;;
46535;SDS011;32264;51.412;5.546;2023-03-11T09:14:34;0.50;;;0.50;;
46535;SDS011;32264;51.412;5.546;2023-03-11T09:17:01;0.60;;;0.60;;
46535;SDS011;32264;51.412;5.546;2023-03-11T09:19:29;0.93;;;0.80;;
46535;SDS011;32264;51.412;5.546;2023-03-11T09:21:55;0.60;;;0.60;;
46535;SDS011;32264;51.412;5.546;2023-03-11T09:24:23;0.55;;;0.55;;
46535;SDS011;32264;51.412;5.546;2023-03-11T09:26:49;0.90;;;0.57;;
46535;SDS011;32264;51.412;5.546;2023-03-11T09:29:17;0.47;;;0.47;;
46535;SDS011;32264;51.412;5.546;2023-03-11T09:31:43;0.50;;;0.50;;
46535;SDS011;32264;51.412;5.546;2023-03-11T09:34:09;1.23;;;0.50;;
46535;SDS011;32264;51.412;5.546;2023-03-11T09:36:41;0.50;;;0.50;;
46535;SDS011;32264;51.412;5.546;2023-03-11T09:39:08;0.57;;;0.45;;
46535;SDS011;32264;51.412;5.546;2023-03-11T09:44:36;0.50;;;0.50;;
46535;SDS011;32264;51.412;5.546;2023-03-11T09:55:33;0.60;;;0.60;;
46535;SDS011;32264;51.412;5.546;2023-03-11T09:58:02;0.63;;;0.40;;
46535;SDS011;32264;51.412;5.546;2023-03-11T10:00:34;0.40;;;0.40;;
46535;SDS011;32264;51.412;5.546;2023-03-11T10:03:00;0.45;;;0.45;;
46535;SDS011;32264;51.412;5.546;2023-03-11T10:05:27;0.57;;;0.40;;
46535;SDS011;32264;51.412;5.546;2023-03-11T10:07:57;0.43;;;0.43;;
46535;SDS011;32264;51.412;5.546;2023-03-11T10:10:28;0.50;;;0.50;;
46535;SDS011;32264;51.412;5.546;2023-03-11T10:26:27;0.35;;;0.35;;
46535;SDS011;32264;51.412;5.546;2023-03-11T10:28:59;0.90;;;0.45;;
46535;SDS011;32264;51.412;5.546;2023-03-11T10:32:04;0.47;;;0.47;;
46535;SDS011;32264;51.412;5.546;2023-03-11T10:34:45;0.30;;;0.30;;
46535;SDS011;32264;51.412;5.546;2023-03-11T10:37:20;0.45;;;0.40;;
46535;SDS011;32264;51.412;5.546;2023-03-11T10:39:50;0.30;;;0.30;;
46535;SDS011;32264;51.412;5.546;2023-03-11T10:42:26;0.82;;;0.63;;
46535;SDS011;32264;51.412;5.546;2023-03-11T10:44:53;1.60;;;0.50;;
46535;SDS011;32264;51.412;5.546;2023-03-11T10:47:20;0.30;;;0.30;;
46535;SDS011;32264;51.412;5.546;2023-03-11T10:49:47;0.57;;;0.57;;
46535;SDS011;32264;51.412;5.546;2023-03-11T10:52:13;0.40;;;0.40;;
46535;SDS011;32264;51.412;5.546;2023-03-11T10:54:40;0.47;;;0.40;;
46535;SDS011;32264;51.412;5.546;2023-03-11T10:59:52;0.35;;;0.35;;
46535;SDS011;32264;51.412;5.546;2023-03-11T11:02:27;0.30;;;0.30;;
46535;SDS011;32264;51.412;5.546;2023-03-11T11:07:42;1.25;;;0.60;;
46535;SDS011;32264;51.412;5.546;2023-03-11T11:10:13;0.40;;;0.40;;
46535;SDS011;32264;51.412;5.546;2023-03-11T17:18:11;0.50;;;0.50;;
46535;SDS011;32264;51.412;5.546;2023-03-11T17:20:38;0.47;;;0.47;;
46535;SDS011;32264;51.412;5.546;2023-03-11T17:23:04;0.65;;;0.65;;
46535;SDS011;32264;51.412;5.546;2023-03-11T17:25:29;0.43;;;0.43;;
46535;SDS011;32264;51.412;5.546;2023-03-11T17:27:56;0.60;;;0.50;;
46535;SDS011;32264;51.412;5.546;2023-03-11T17:30:21;0.57;;;0.45;;
46535;SDS011;32264;51.412;5.546;2023-03-11T17:32:47;0.50;;;0.50;;
46535;SDS011;32264;51.412;5.546;2023-03-11T17:35:13;0.43;;;0.35;;
46535;SDS011;32264;51.412;5.546;2023-03-11T17:37:38;0.50;;;0.50;;
46535;SDS011;32264;51.412;5.546;2023-03-11T17:40:04;0.60;;;0.60;;
46535;SDS011;32264;51.412;5.546;2023-03-11T17:42:31;0.60;;;0.60;;
46535;SDS011;32264;51.412;5.546;2023-03-11T17:44:56;0.40;;;0.40;;
46535;SDS011;32264;51.412;5.546;2023-03-11T17:47:22;0.88;;;0.52;;
46535;SDS011;32264;51.412;5.546;2023-03-11T17:49:51;0.50;;;0.50;;
46535;SDS011;32264;51.412;5.546;2023-03-11T17:52:17;0.60;;;0.60;;
46535;SDS011;32264;51.412;5.546;2023-03-11T17:54:43;0.50;;;0.50;;
46535;SDS011;32264;51.412;5.546;2023-03-11T17:57:08;0.73;;;0.50;;
46535;SDS011;32264;51.412;5.546;2023-03-11T17:59:34;0.45;;;0.45;;
46535;SDS011;32264;51.412;5.546;2023-03-11T18:02:00;0.82;;;0.50;;
46535;SDS011;32264;51.412;5.546;2023-03-11T18:04:26;0.60;;;0.60;;
46535;SDS011;32264;51.412;5.546;2023-03-11T18:06:52;0.60;;;0.60;;
46535;SDS011;32264;51.412;5.546;2023-03-11T18:09:18;0.60;;;0.60;;
46535;SDS011;32264;51.412;5.546;2023-03-11T18:11:44;0.60;;;0.60;;
46535;SDS011;32264;51.412;5.546;2023-03-11T18:14:09;0.50;;;0.50;;
46535;SDS011;32264;51.412;5.546;2023-03-11T18:16:36;0.82;;;0.82;;
46535;SDS011;32264;51.412;5.546;2023-03-11T18:19:02;0.60;;;0.60;;
46535;SDS011;32264;51.412;5.546;2023-03-11T18:21:28;0.55;;;0.55;;
46535;SDS011;32264;51.412;5.546;2023-03-11T18:23:55;0.80;;;0.80;;
46535;SDS011;32264;51.412;5.546;2023-03-11T18:26:23;0.63;;;0.63;;
46535;SDS011;32264;51.412;5.546;2023-03-11T18:28:51;0.55;;;0.55;;
46535;SDS011;32264;51.412;5.546;2023-03-11T18:31:18;0.80;;;0.70;;
46535;SDS011;32264;51.412;5.546;2023-03-11T18:33:53;1.25;;;0.70;;
46535;SDS011;32264;51.412;5.546;2023-03-11T18:38:48;0.57;;;0.57;;
46535;SDS011;32264;51.412;5.546;2023-03-11T18:41:16;0.60;;;0.60;;
46535;SDS011;32264;51.412;5.546;2023-03-11T18:43:41;0.50;;;0.50;;
46535;SDS011;32264;51.412;5.546;2023-03-11T18:46:08;1.05;;;0.57;;
46535;SDS011;32264;51.412;5.546;2023-03-11T18:48:35;0.60;;;0.60;;
46535;SDS011;32264;51.412;5.546;2023-03-11T18:51:02;0.75;;;0.65;;
46535;SDS011;32264;51.412;5.546;2023-03-11T18:53:28;0.65;;;0.65;;
46535;SDS011;32264;51.412;5.546;2023-03-11T18:56:13;1.02;;;0.75;;
46535;SDS011;32264;51.412;5.546;2023-03-11T18:58:40;0.60;;;0.60;;
46535;SDS011;32264;51.412;5.546;2023-03-11T19:01:16;0.60;;;0.60;;
46535;SDS011;32264;51.412;5.546;2023-03-11T19:03:44;0.57;;;0.52;;
46535;SDS011;32264;51.412;5.546;2023-03-11T19:06:14;0.60;;;0.60;;
46535;SDS011;32264;51.412;5.546;2023-03-11T19:08:40;0.60;;;0.60;;
46535;SDS011;32264;51.412;5.546;2023-03-11T19:11:07;0.77;;;0.77;;
46535;SDS011;32264;51.412;5.546;2023-03-11T19:13:34;0.90;;;0.90;;
46535;SDS011;32264;51.412;5.546;2023-03-11T19:16:02;0.85;;;0.85;;
46535;SDS011;32264;51.412;5.546;2023-03-11T19:18:33;0.85;;;0.85;;
46535;SDS011;32264;51.412;5.546;2023-03-11T19:20:59;1.10;;;1.00;;
46535;SDS011;32264;51.412;5.546;2023-03-11T19:23:26;2.50;;;1.20;;
46535;SDS011;32264;51.412;5.546;2023-03-11T19:25:52;0.80;;;0.80;;
46535;SDS011;32264;51.412;5.546;2023-03-11T19:28:18;1.17;;;1.00;;
46535;SDS011;32264;51.412;5.546;2023-03-11T19:30:44;1.05;;;1.05;;
46535;SDS011;32264;51.412;5.546;2023-03-11T19:33:13;1.23;;;1.05;;
46535;SDS011;32264;51.412;5.546;2023-03-11T19:35:39;1.98;;;1.30;;
46535;SDS011;32264;51.412;5.546;2023-03-11T19:38:05;0.93;;;0.90;;
46535;SDS011;32264;51.412;5.546;2023-03-11T19:40:30;1.60;;;1.30;;
46535;SDS011;32264;51.412;5.546;2023-03-11T19:42:57;1.27;;;1.10;;
46535;SDS011;32264;51.412;5.546;2023-03-11T19:45:24;2.15;;;1.67;;
46535;SDS011;32264;51.412;5.546;2023-03-11T19:47:53;2.25;;;1.75;;
46535;SDS011;32264;51.412;5.546;2023-03-11T19:50:18;2.10;;;1.85;;
46535;SDS011;32264;51.412;5.546;2023-03-11T19:52:44;1.90;;;1.70;;
46535;SDS011;32264;51.412;5.546;2023-03-11T19:55:10;3.20;;;1.73;;
46535;SDS011;32264;51.412;5.546;2023-03-11T19:57:36;1.67;;;1.55;;
46535;SDS011;32264;51.412;5.546;2023-03-11T20:00:02;2.20;;;1.70;;
46535;SDS011;32264;51.412;5.546;2023-03-11T20:02:29;2.17;;;1.50;;
46535;SDS011;32264;51.412;5.546;2023-03-11T20:04:54;2.35;;;1.80;;
46535;SDS011;32264;51.412;5.546;2023-03-11T20:07:22;2.35;;;1.90;;
46535;SDS011;32264;51.412;5.546;2023-03-11T20:09:51;2.03;;;1.67;;
46535;SDS011;32264;51.412;5.546;2023-03-11T20:12:53;2.30;;;1.80;;
46535;SDS011;32264;51.412;5.546;2023-03-11T20:15:23;1.58;;;1.48;;
46535;SDS011;32264;51.412;5.546;2023-03-11T20:17:49;1.95;;;1.70;;
46535;SDS011;32264;51.412;5.546;2023-03-11T20:20:15;1.52;;;1.40;;
46535;SDS011;32264;51.412;5.546;2023-03-11T20:22:41;1.88;;;1.42;;
46535;SDS011;32264;51.412;5.546;2023-03-11T20:25:06;1.58;;;1.30;;
46535;SDS011;32264;51.412;5.546;2023-03-11T20:27:32;1.60;;;1.50;;
46535;SDS011;32264;51.412;5.546;2023-03-11T20:29:58;1.52;;;1.42;;
46535;SDS011;32264;51.412;5.546;2023-03-11T20:32:24;1.92;;;1.58;;
46535;SDS011;32264;51.412;5.546;2023-03-11T20:34:54;1.60;;;1.42;;
46535;SDS011;32264;51.412;5.546;2023-03-11T20:37:20;1.67;;;1.58;;
46535;SDS011;32264;51.412;5.546;2023-03-11T20:39:48;2.15;;;1.83;;
46535;SDS011;32264;51.412;5.546;2023-03-11T20:42:14;2.03;;;1.75;;
46535;SDS011;32264;51.412;5.546;2023-03-11T20:44:40;3.15;;;1.98;;
46535;SDS011;32264;51.412;5.546;2023-03-11T20:47:05;2.13;;;1.80;;
46535;SDS011;32264;51.412;5.546;2023-03-11T20:49:31;2.30;;;1.70;;
46535;SDS011;32264;51.412;5.546;2023-03-11T20:51:57;1.70;;;1.60;;
46535;SDS011;32264;51.412;5.546;2023-03-11T20:54:25;2.00;;;1.60;;
46535;SDS011;32264;51.412;5.546;2023-03-11T20:56:50;1.88;;;1.50;;
46535;SDS011;32264;51.412;5.546;2023-03-11T20:59:16;1.27;;;1.17;;
46535;SDS011;32264;51.412;5.546;2023-03-11T21:01:42;1.98;;;1.58;;
46535;SDS011;32264;51.412;5.546;2023-03-11T21:04:08;1.33;;;1.20;;
46535;SDS011;32264;51.412;5.546;2023-03-11T21:06:35;1.35;;;1.25;;
46535;SDS011;32264;51.412;5.546;2023-03-11T21:09:05;1.38;;;1.27;;
46535;SDS011;32264;51.412;5.546;2023-03-11T21:11:34;1.70;;;1.50;;
46535;SDS011;32264;51.412;5.546;2023-03-11T21:14:00;1.52;;;1.42;;
46535;SDS011;32264;51.412;5.546;2023-03-11T21:16:26;1.40;;;1.30;;
46535;SDS011;32264;51.412;5.546;2023-03-11T21:18:52;1.02;;;1.02;;
46535;SDS011;32264;51.412;5.546;2023-03-11T21:21:18;1.20;;;1.10;;
46535;SDS011;32264;51.412;5.546;2023-03-11T21:23:44;1.20;;;1.10;;
46535;SDS011;32264;51.412;5.546;2023-03-11T21:26:11;1.60;;;1.20;;
46535;SDS011;32264;51.412;5.546;2023-03-11T21:28:37;1.60;;;1.42;;
46535;SDS011;32264;51.412;5.546;2023-03-11T21:31:08;1.35;;;1.25;;
46535;SDS011;32264;51.412;5.546;2023-03-11T21:33:37;1.40;;;1.30;;
46535;SDS011;32264;51.412;5.546;2023-03-11T21:36:04;1.60;;;1.40;;
46535;SDS011;32264;51.412;5.546;2023-03-11T21:38:31;1.50;;;1.35;;
46535;SDS011;32264;51.412;5.546;2023-03-11T21:41:31;1.67;;;1.42;;
46535;SDS011;32264;51.412;5.546;2023-03-11T21:43:51;1.73;;;1.30;;
46535;SDS011;32264;51.412;5.546;2023-03-11T21:46:18;1.33;;;1.15;;